Time;durP1;ratioP1;P1;durP2;ratioP2;P2;SDS_P1;SDS_P2;PMS_P1;PMS_P2;Temp;Humidity;BMP_temperature;BMP_pressure;BME280_temperature;BME280_humidity;BME280_pressure;Samples;Min_cycle;Max_cycle;Signal;HPM_P1;HPM_P2
2022/02/07 00:00:23;;;;;;;;;;;2.40;99.90;;;;;;4944450;28;19955;-84
2022/02/07 00:05:27;;;;;;;;;;;2.30;99.90;;;;;;4959406;28;20545;-82
2022/02/07 00:07:53;;;;;;;;;;;2.30;99.90;;;;;;4938534;28;19926;-84
2022/02/07 00:10:19;;;;;;;;;;;2.30;99.90;;;;;;4940299;28;20513;-84
2022/02/07 00:12:45;;;;;;;;;;;2.20;99.90;;;;;;4943985;28;20720;-85
2022/02/07 00:15:12;;;;;;;;;;;2.20;99.90;;;;;;4924171;28;19940;-84
2022/02/07 00:17:37;;;;;;;;;;;2.20;99.90;;;;;;4942180;28;19933;-85
2022/02/07 00:20:08;;;;;;;;;;;2.20;99.90;;;;;;4963641;28;19926;-85
2022/02/07 00:22:34;;;;;;;;;;;2.10;99.90;;;;;;4923664;28;20015;-84
2022/02/07 00:25:00;;;;;;;;;;;2.20;99.90;;;;;;4945648;28;19981;-84
2022/02/07 00:27:25;;;;;;;;;;;2.20;99.90;;;;;;4936658;28;19935;-84
2022/02/07 00:29:51;;;;;;;;;;;2.20;99.90;;;;;;4939780;28;20020;-87
2022/02/07 00:32:17;;;;;;;;;;;2.30;99.90;;;;;;4926916;28;19983;-86
2022/02/07 00:34:46;;;;;;;;;;;2.40;99.90;;;;;;4955015;28;20288;-86
2022/02/07 00:37:12;;;;;;;;;;;2.40;99.90;;;;;;4959662;28;20033;-86
2022/02/07 00:39:49;;;;;;;;;;;2.50;99.90;;;;;;4961273;28;20008;-85
2022/02/07 00:42:25;;;;;;;;;;;2.50;99.90;;;;;;4952469;28;19926;-84
2022/02/07 00:44:50;;;;;;;;;;;2.50;99.90;;;;;;4961955;28;19925;-85
2022/02/07 00:47:16;;;;;;;;;;;2.60;99.90;;;;;;4954089;28;19932;-84
2022/02/07 00:49:42;;;;;;;;;;;2.60;99.90;;;;;;4973588;28;20012;-84
2022/02/07 00:52:08;;;;;;;;;;;2.60;99.90;;;;;;4950929;28;20020;-84
2022/02/07 00:54:33;;;;;;;;;;;2.60;99.90;;;;;;4951551;28;19996;-85
2022/02/07 00:56:59;;;;;;;;;;;2.70;99.90;;;;;;4964808;28;19926;-86
2022/02/07 00:59:24;;;;;;;;;;;2.70;99.90;;;;;;4952231;28;19975;-86
2022/02/07 01:01:50;;;;;;;;;;;2.70;99.90;;;;;;4965916;28;20436;-87
2022/02/07 01:04:16;;;;;;;;;;;2.70;99.90;;;;;;4953165;28;20122;-87
2022/02/07 01:06:42;;;;;;;;;;;2.80;99.90;;;;;;4951575;28;20163;-86
2022/02/07 01:14:13;;;;;;;;;;;2.80;99.90;;;;;;4969628;28;19976;-86
2022/02/07 01:54:26;;;;;;;;;;;3.00;99.90;;;;;;4980189;28;19929;-87
2022/02/07 01:56:52;;;;;;;;;;;3.00;99.90;;;;;;4967648;28;19925;-85
2022/02/07 01:59:18;;;;;;;;;;;3.10;99.90;;;;;;4958646;28;19926;-86
2022/02/07 02:01:44;;;;;;;;;;;3.10;99.90;;;;;;4971173;28;19974;-87
2022/02/07 02:04:10;;;;;;;;;;;3.20;99.90;;;;;;4951520;28;19922;-85
2022/02/07 02:06:36;;;;;;;;;;;3.30;99.90;;;;;;4949244;28;19972;-85
2022/02/07 02:09:03;;;;;;;;;;;3.30;99.90;;;;;;4985115;28;19921;-87
2022/02/07 02:11:29;;;;;;;;;;;3.40;99.90;;;;;;4983425;28;19979;-85
2022/02/07 02:17:00;;;;;;;;;;;3.50;99.90;;;;;;4986015;28;19939;-86
2022/02/07 02:22:39;;;;;;;;;;;3.50;99.90;;;;;;4986141;28;19934;-86
2022/02/07 02:38:27;;;;;;;;;;;3.60;99.90;;;;;;4957373;28;20428;-85
2022/02/07 02:46:29;;;;;;;;;;;3.70;99.90;;;;;;4983650;28;19922;-87
2022/02/07 02:49:00;;;;;;;;;;;3.70;99.90;;;;;;4982967;28;19921;-88
2022/02/07 02:51:26;;;;;;;;;;;3.70;99.90;;;;;;4983126;28;20060;-85
2022/02/07 02:53:52;;;;;;;;;;;3.60;99.90;;;;;;4949906;28;20241;-87
2022/02/07 02:56:17;;;;;;;;;;;3.70;99.90;;;;;;4952073;28;19930;-87
2022/02/07 02:58:43;;;;;;;;;;;3.70;99.90;;;;;;4951611;28;19929;-85
2022/02/07 03:01:09;;;;;;;;;;;3.70;99.90;;;;;;4978407;28;19921;-84
2022/02/07 03:03:34;;;;;;;;;;;3.70;99.90;;;;;;4966924;28;19956;-84
2022/02/07 03:06:00;;;;;;;;;;;3.70;99.90;;;;;;4968152;28;20012;-87
2022/02/07 03:08:27;;;;;;;;;;;3.60;99.90;;;;;;4951853;28;20004;-85
2022/02/07 03:18:29;;;;;;;;;;;3.60;99.90;;;;;;4981004;28;19926;-83
2022/02/07 03:20:55;;;;;;;;;;;3.60;99.90;;;;;;4961128;28;19956;-85
2022/02/07 03:23:21;;;;;;;;;;;3.60;99.90;;;;;;4967542;28;19925;-84
2022/02/07 03:25:47;;;;;;;;;;;3.60;99.90;;;;;;4994865;28;19937;-84
2022/02/07 03:28:13;;;;;;;;;;;3.60;99.90;;;;;;4966862;28;19999;-84
2022/02/07 03:30:38;;;;;;;;;;;3.70;99.90;;;;;;4960135;28;19933;-85
2022/02/07 03:33:05;;;;;;;;;;;3.70;99.90;;;;;;4957127;28;21104;-85
2022/02/07 03:35:30;;;;;;;;;;;3.80;99.90;;;;;;4950723;28;19957;-83
2022/02/07 03:37:56;;;;;;;;;;;3.70;99.90;;;;;;4967102;28;19933;-84
2022/02/07 03:40:22;;;;;;;;;;;3.80;99.90;;;;;;4950202;28;19964;-84
2022/02/07 03:42:48;;;;;;;;;;;3.80;99.90;;;;;;4963177;28;19925;-86
2022/02/07 03:45:14;;;;;;;;;;;3.80;99.90;;;;;;4958731;28;19961;-87
2022/02/07 03:47:39;;;;;;;;;;;3.90;99.90;;;;;;4950417;28;19983;-86
2022/02/07 03:50:06;;;;;;;;;;;3.90;99.90;;;;;;4947172;28;21427;-85
2022/02/07 03:52:31;;;;;;;;;;;3.90;99.90;;;;;;4969426;28;19988;-87
2022/02/07 03:54:57;;;;;;;;;;;3.90;99.90;;;;;;4967434;28;20385;-85
2022/02/07 03:57:23;;;;;;;;;;;3.90;99.90;;;;;;4964622;28;20008;-83
2022/02/07 03:59:48;;;;;;;;;;;3.80;99.90;;;;;;4981886;28;20013;-86
2022/02/07 04:02:14;;;;;;;;;;;3.80;99.90;;;;;;4961392;28;19922;-86
2022/02/07 04:04:42;;;;;;;;;;;3.70;99.90;;;;;;4951259;28;19932;-86
2022/02/07 04:07:09;;;;;;;;;;;3.70;99.90;;;;;;4954219;28;19930;-85
2022/02/07 04:09:41;;;;;;;;;;;3.70;99.90;;;;;;4964131;28;19921;-85
2022/02/07 04:12:15;;;;;;;;;;;3.70;99.90;;;;;;4966767;28;19996;-86
2022/02/07 04:14:41;;;;;;;;;;;3.60;99.90;;;;;;4965350;28;19926;-84
2022/02/07 04:17:10;;;;;;;;;;;3.60;99.90;;;;;;4977276;28;19933;-86
2022/02/07 04:19:36;;;;;;;;;;;3.60;99.90;;;;;;4952432;28;19936;-85
2022/02/07 04:22:05;;;;;;;;;;;3.60;99.90;;;;;;4963725;28;19922;-87
2022/02/07 04:24:31;;;;;;;;;;;3.60;99.90;;;;;;4965780;28;20440;-85
2022/02/07 04:26:56;;;;;;;;;;;3.60;99.90;;;;;;4980352;28;20016;-86
2022/02/07 04:29:22;;;;;;;;;;;3.60;99.90;;;;;;4979854;28;20367;-84
2022/02/07 04:31:47;;;;;;;;;;;3.70;99.90;;;;;;4966542;28;19926;-85
2022/02/07 04:34:13;;;;;;;;;;;3.70;99.90;;;;;;4949441;28;19936;-84
2022/02/07 04:36:41;;;;;;;;;;;3.70;99.90;;;;;;4967737;28;19973;-85
2022/02/07 04:39:07;;;;;;;;;;;3.70;99.90;;;;;;4983886;28;20222;-84
2022/02/07 04:41:33;;;;;;;;;;;3.70;99.90;;;;;;4945947;28;20012;-85
2022/02/07 04:44:03;;;;;;;;;;;3.70;99.90;;;;;;4967002;28;19972;-86
2022/02/07 04:46:56;;;;;;;;;;;3.70;99.90;;;;;;4960683;28;19932;-85
2022/02/07 04:49:43;;;;;;;;;;;3.70;99.90;;;;;;4980515;28;20192;-87
2022/02/07 04:52:39;;;;;;;;;;;3.70;99.90;;;;;;4960337;28;20373;-86
2022/02/07 04:57:59;;;;;;;;;;;3.90;99.90;;;;;;4985513;28;19926;-85
2022/02/07 05:00:36;;;;;;;;;;;3.90;99.90;;;;;;4976495;28;19945;-85
2022/02/07 05:03:07;;;;;;;;;;;4.00;99.90;;;;;;4961053;28;19952;-84
2022/02/07 05:16:15;;;;;;;;;;;3.90;99.90;;;;;;4983419;28;19929;-84
2022/02/07 05:18:40;;;;;;;;;;;3.90;99.90;;;;;;4962470;28;19936;-83
2022/02/07 05:21:06;;;;;;;;;;;4.00;99.90;;;;;;4960455;28;20020;-83
2022/02/07 05:23:31;;;;;;;;;;;4.00;99.90;;;;;;4958005;28;19922;-85
2022/02/07 05:25:57;;;;;;;;;;;3.90;99.90;;;;;;4980335;28;19922;-84
2022/02/07 05:28:23;;;;;;;;;;;3.90;99.90;;;;;;4980636;28;19932;-85
2022/02/07 05:30:48;;;;;;;;;;;3.90;99.90;;;;;;4959912;28;19944;-83
2022/02/07 05:33:14;;;;;;;;;;;3.80;99.90;;;;;;5006353;28;19936;-86
2022/02/07 05:35:40;;;;;;;;;;;3.80;99.90;;;;;;4985232;28;20052;-84
2022/02/07 05:38:08;;;;;;;;;;;3.70;99.90;;;;;;4967873;28;19976;-84
2022/02/07 05:40:52;;;;;;;;;;;3.70;99.90;;;;;;4967071;28;19928;-83
2022/02/07 05:43:18;;;;;;;;;;;3.60;99.90;;;;;;4988890;28;19976;-85
2022/02/07 05:45:46;;;;;;;;;;;3.60;99.90;;;;;;4988104;28;19969;-85
2022/02/07 05:48:15;;;;;;;;;;;3.60;99.90;;;;;;4991694;28;19929;-84
2022/02/07 05:50:41;;;;;;;;;;;3.60;99.90;;;;;;4957252;28;20590;-86
2022/02/07 05:53:07;;;;;;;;;;;3.70;99.90;;;;;;4953404;28;20000;-84
2022/02/07 05:55:33;;;;;;;;;;;3.70;99.90;;;;;;4956149;28;20369;-85
2022/02/07 05:57:58;;;;;;;;;;;3.70;99.90;;;;;;4962144;28;20016;-83
2022/02/07 06:00:25;;;;;;;;;;;3.70;99.90;;;;;;4961678;28;19925;-86
2022/02/07 06:02:51;;;;;;;;;;;3.80;99.90;;;;;;4975014;28;20020;-85
2022/02/07 06:05:17;;;;;;;;;;;3.70;99.90;;;;;;4954684;28;20001;-85
2022/02/07 06:07:42;;;;;;;;;;;3.70;99.90;;;;;;4960058;28;19948;-84
2022/02/07 06:10:08;;;;;;;;;;;3.70;99.90;;;;;;4969163;28;19932;-86
2022/02/07 06:12:34;;;;;;;;;;;3.70;99.90;;;;;;4969162;28;20290;-83
2022/02/07 06:15:00;;;;;;;;;;;3.70;99.90;;;;;;4989707;28;20013;-85
2022/02/07 06:17:26;;;;;;;;;;;3.70;99.90;;;;;;4973690;28;19929;-86
2022/02/07 06:19:53;;;;;;;;;;;3.70;99.90;;;;;;4978705;28;19952;-85
2022/02/07 06:22:19;;;;;;;;;;;3.70;99.90;;;;;;4952640;28;20416;-82
2022/02/07 06:24:44;;;;;;;;;;;3.70;99.90;;;;;;4956313;28;19921;-86
2022/02/07 06:27:10;;;;;;;;;;;3.70;99.90;;;;;;4950757;28;19932;-84
2022/02/07 06:29:36;;;;;;;;;;;3.60;99.90;;;;;;4983853;28;19926;-84
2022/02/07 06:32:02;;;;;;;;;;;3.60;99.90;;;;;;4952158;28;19926;-85
2022/02/07 06:34:28;;;;;;;;;;;3.50;99.90;;;;;;4968653;28;19929;-84
2022/02/07 06:36:53;;;;;;;;;;;3.40;99.90;;;;;;4955993;28;19929;-84
2022/02/07 06:39:19;;;;;;;;;;;3.40;99.90;;;;;;4957398;28;19925;-84
2022/02/07 06:41:46;;;;;;;;;;;3.30;99.90;;;;;;4955264;28;19934;-84
2022/02/07 06:44:12;;;;;;;;;;;3.30;99.90;;;;;;4956060;28;19929;-84
2022/02/07 06:46:37;;;;;;;;;;;3.20;99.90;;;;;;4961024;28;19929;-83
2022/02/07 06:49:03;;;;;;;;;;;3.10;99.90;;;;;;4962741;28;19932;-83
2022/02/07 06:51:28;;;;;;;;;;;3.10;99.90;;;;;;4971348;28;19921;-83
2022/02/07 06:53:54;;;;;;;;;;;3.00;99.90;;;;;;4965760;28;20691;-84
2022/02/07 06:56:20;;;;;;;;;;;3.00;99.90;;;;;;4954352;28;19926;-83
2022/02/07 06:58:47;;;;;;;;;;;3.00;99.90;;;;;;4959244;28;21879;-83
2022/02/07 07:01:13;;;;;;;;;;;2.90;99.90;;;;;;4971469;28;19922;-85
2022/02/07 07:03:43;;;;;;;;;;;2.90;99.90;;;;;;4987320;28;19929;-84
2022/02/07 07:06:08;;;;;;;;;;;2.80;99.90;;;;;;4959860;28;20391;-84
2022/02/07 07:08:38;;;;;;;;;;;2.80;99.90;;;;;;4989123;28;19972;-84
2022/02/07 07:11:04;;;;;;;;;;;2.70;99.90;;;;;;4953308;28;19926;-85
2022/02/07 07:13:39;;;;;;;;;;;2.70;99.90;;;;;;4975931;28;20161;-83
2022/02/07 07:16:25;;;;;;;;;;;2.70;99.90;;;;;;4974529;28;20347;-83
2022/02/07 07:18:51;;;;;;;;;;;2.70;99.90;;;;;;4989458;28;19973;-84
2022/02/07 07:21:16;;;;;;;;;;;2.60;99.90;;;;;;4990762;28;19922;-84
2022/02/07 07:23:43;;;;;;;;;;;2.60;99.90;;;;;;4989321;28;19944;-83
2022/02/07 07:26:08;;;;;;;;;;;2.60;99.90;;;;;;4973141;28;20483;-84
2022/02/07 07:28:35;;;;;;;;;;;2.60;99.90;;;;;;4974977;28;19949;-83
2022/02/07 07:31:03;;;;;;;;;;;2.50;99.90;;;;;;4955468;28;19921;-83
2022/02/07 07:33:31;;;;;;;;;;;2.50;99.90;;;;;;4961948;28;20054;-84
2022/02/07 07:35:57;;;;;;;;;;;2.50;99.90;;;;;;4954153;28;20020;-85
2022/02/07 07:38:23;;;;;;;;;;;2.60;99.90;;;;;;4989259;28;20202;-83
2022/02/07 07:40:49;;;;;;;;;;;2.60;99.90;;;;;;4964602;28;19929;-84
2022/02/07 07:43:15;;;;;;;;;;;2.60;99.90;;;;;;4970005;28;19929;-84
2022/02/07 07:45:46;;;;;;;;;;;2.70;99.90;;;;;;4968548;28;20374;-86
2022/02/07 07:48:17;;;;;;;;;;;2.70;99.90;;;;;;4945793;28;19922;-85
2022/02/07 07:51:05;;;;;;;;;;;2.80;99.90;;;;;;4968930;28;19964;-85
2022/02/07 08:01:55;;;;;;;;;;;3.10;99.90;;;;;;4972955;28;19921;-85
2022/02/07 08:04:26;;;;;;;;;;;3.20;99.90;;;;;;4979559;28;19976;-85
2022/02/07 08:07:04;;;;;;;;;;;3.30;99.90;;;;;;4964204;28;19922;-86
2022/02/07 08:12:03;;;;;;;;;;;3.40;99.90;;;;;;4971985;28;20479;-86
2022/02/07 08:14:33;;;;;;;;;;;3.40;99.90;;;;;;4968944;28;20016;-86
2022/02/07 08:16:59;;;;;;;;;;;3.50;99.90;;;;;;4962686;28;19933;-86
2022/02/07 08:19:26;;;;;;;;;;;3.50;99.90;;;;;;4953748;28;19952;-87
2022/02/07 08:21:54;;;;;;;;;;;3.50;99.90;;;;;;4957148;28;19976;-84
2022/02/07 08:24:20;;;;;;;;;;;3.60;99.90;;;;;;4969747;28;20381;-85
2022/02/07 08:26:47;;;;;;;;;;;3.60;99.90;;;;;;4972808;28;20004;-83
2022/02/07 08:29:13;;;;;;;;;;;3.70;99.90;;;;;;4990449;28;19988;-85
2022/02/07 08:31:38;;;;;;;;;;;3.70;99.90;;;;;;4973147;28;19929;-85
2022/02/07 08:34:04;;;;;;;;;;;3.80;99.90;;;;;;4952557;28;19921;-83
2022/02/07 08:36:30;;;;;;;;;;;4.00;99.90;;;;;;4966681;28;20530;-87
2022/02/07 08:38:56;;;;;;;;;;;4.00;99.90;;;;;;4961329;28;19926;-85
2022/02/07 08:41:21;;;;;;;;;;;4.10;99.90;;;;;;4991005;28;20550;-84
2022/02/07 08:43:47;;;;;;;;;;;4.20;99.90;;;;;;4972590;28;19929;-85
2022/02/07 08:46:15;;;;;;;;;;;4.20;99.90;;;;;;4972195;28;20151;-85
2022/02/07 08:48:44;;;;;;;;;;;4.30;99.90;;;;;;4973156;28;20315;-87
2022/02/07 08:51:16;;;;;;;;;;;4.30;99.90;;;;;;4953322;28;19921;-85
2022/02/07 08:53:45;;;;;;;;;;;4.40;99.90;;;;;;4975212;28;19921;-85
2022/02/07 08:56:13;;;;;;;;;;;4.40;99.90;;;;;;4990569;28;19925;-85
2022/02/07 08:58:52;;;;;;;;;;;4.50;99.90;;;;;;4980908;28;19933;-86
2022/02/07 09:01:29;;;;;;;;;;;4.50;99.90;;;;;;4969169;28;20414;-85
2022/02/07 09:07:00;;;;;;;;;;;4.60;99.90;;;;;;4970518;28;20008;-86
2022/02/07 09:09:26;;;;;;;;;;;4.70;99.90;;;;;;4957190;28;20540;-85
2022/02/07 09:11:52;;;;;;;;;;;4.80;99.90;;;;;;4971294;28;19928;-85
2022/02/07 09:14:22;;;;;;;;;;;4.80;99.90;;;;;;4985749;28;20155;-83
2022/02/07 09:16:51;;;;;;;;;;;4.80;99.90;;;;;;4960394;28;19933;-86
2022/02/07 09:19:20;;;;;;;;;;;4.90;99.90;;;;;;4969462;28;20447;-86
2022/02/07 09:21:49;;;;;;;;;;;5.00;99.90;;;;;;4963286;28;19961;-84
2022/02/07 09:24:15;;;;;;;;;;;5.00;99.90;;;;;;4969924;28;20041;-84
2022/02/07 09:26:41;;;;;;;;;;;5.10;99.90;;;;;;4967412;28;20044;-87
2022/02/07 09:29:09;;;;;;;;;;;5.10;99.90;;;;;;4984303;28;19921;-86
2022/02/07 09:31:38;;;;;;;;;;;5.20;99.90;;;;;;4982377;28;19936;-86
2022/02/07 09:34:03;;;;;;;;;;;5.20;99.90;;;;;;4980602;23;19925;-86
2022/02/07 09:36:29;;;;;;;;;;;5.30;99.90;;;;;;4978684;28;19921;-85
2022/02/07 09:38:56;;;;;;;;;;;5.40;99.90;;;;;;5000324;28;20015;-89
2022/02/07 09:41:24;;;;;;;;;;;5.40;99.90;;;;;;4999878;28;20026;-88
2022/02/07 09:43:50;;;;;;;;;;;5.50;99.90;;;;;;4994309;28;19925;-87
2022/02/07 09:46:21;;;;;;;;;;;5.60;99.90;;;;;;5001388;28;19921;-86
2022/02/07 09:48:49;;;;;;;;;;;5.60;99.90;;;;;;4989260;28;20331;-86
2022/02/07 09:51:15;;;;;;;;;;;5.70;99.90;;;;;;5000355;28;20311;-87
2022/02/07 09:53:41;;;;;;;;;;;5.80;99.90;;;;;;4980849;28;19929;-88
2022/02/07 09:56:08;;;;;;;;;;;5.90;99.90;;;;;;5002971;28;20100;-86
2022/02/07 09:58:37;;;;;;;;;;;5.90;99.90;;;;;;5003188;28;20214;-87
2022/02/07 10:01:06;;;;;;;;;;;6.00;99.90;;;;;;4985578;28;19979;-87
2022/02/07 10:03:51;;;;;;;;;;;6.00;99.90;;;;;;5002354;28;19932;-89
2022/02/07 10:06:30;;;;;;;;;;;6.00;99.90;;;;;;5017198;28;20269;-86
2022/02/07 10:09:41;;;;;;;;;;;6.10;99.90;;;;;;5008116;28;19925;-89
2022/02/07 10:20:28;;;;;;;;;;;6.30;99.90;;;;;;4989789;28;20311;-87
2022/02/07 10:39:48;;;;;;;;;;;6.70;99.90;;;;;;5017134;28;19944;-86
2022/02/07 10:43:06;;;;;;;;;;;6.70;99.90;;;;;;4999493;28;19925;-86
2022/02/07 10:45:06;;;;;;;;;;;6.80;99.90;;;;;;5015312;28;20374;-88
2022/02/07 10:47:42;;;;;;;;;;;6.90;99.90;;;;;;4997050;28;19951;-86
2022/02/07 10:50:10;;;;;;;;;;;6.90;99.90;;;;;;4996910;28;20055;-86
2022/02/07 10:52:53;;;;;;;;;;;6.90;99.90;;;;;;4998665;28;19926;-85
2022/02/07 10:55:22;;;;;;;;;;;6.90;99.90;;;;;;5015390;28;19921;-86
2022/02/07 10:57:49;;;;;;;;;;;7.10;99.90;;;;;;5003899;28;19979;-88
2022/02/07 11:00:15;;;;;;;;;;;7.10;99.90;;;;;;5002533;28;20381;-87
2022/02/07 11:03:25;;;;;;;;;;;7.20;99.90;;;;;;5003703;28;19972;-87
2022/02/07 11:05:39;;;;;;;;;;;7.20;99.90;;;;;;5003742;28;19967;-87
2022/02/07 11:08:31;;;;;;;;;;;7.20;99.90;;;;;;5002158;28;20038;-87
2022/02/07 11:21:39;;;;;;;;;;;7.10;99.90;;;;;;5016632;28;20012;-87
2022/02/07 11:24:53;;;;;;;;;;;7.10;99.90;;;;;;4995938;28;20006;-88
2022/02/07 11:27:50;;;;;;;;;;;7.00;99.90;;;;;;4997716;28;20452;-87
2022/02/07 11:30:39;;;;;;;;;;;7.00;99.90;;;;;;4996294;28;19929;-88
2022/02/07 11:33:24;;;;;;;;;;;6.90;99.90;;;;;;4988485;28;20275;-87
2022/02/07 11:35:50;;;;;;;;;;;7.00;99.90;;;;;;4993318;28;19921;-88
2022/02/07 11:38:19;;;;;;;;;;;7.10;99.90;;;;;;4998538;28;20330;-86
2022/02/07 11:41:02;;;;;;;;;;;7.20;99.90;;;;;;4997805;28;19925;-87
2022/02/07 11:43:37;;;;;;;;;;;7.20;99.90;;;;;;5016707;28;20024;-88
2022/02/07 11:46:03;;;;;;;;;;;7.20;99.90;;;;;;5035562;28;19922;-90
2022/02/07 11:48:33;;;;;;;;;;;7.20;99.90;;;;;;5001626;28;20421;-87
2022/02/07 11:51:05;;;;;;;;;;;7.20;99.90;;;;;;4996294;28;19947;-89
2022/02/07 11:53:35;;;;;;;;;;;7.30;99.90;;;;;;4998041;28;19926;-89
2022/02/07 11:56:07;;;;;;;;;;;7.30;99.90;;;;;;5001684;28;19948;-88
2022/02/07 11:59:11;;;;;;;;;;;7.20;99.90;;;;;;4999852;28;19953;-88
2022/02/07 12:03:34;;;;;;;28.58;3.03;;;7.30;99.90;;;;;;5078822;27;20481;-89
2022/02/07 12:06:02;;;;;;;24.88;3.58;;;7.40;99.90;;;;;;5055638;28;20551;-89
2022/02/07 12:08:37;;;;;;;28.30;4.43;;;7.50;99.90;;;;;;5046982;28;20132;-88
2022/02/07 12:11:03;;;;;;;30.63;4.05;;;7.60;99.90;;;;;;5027236;28;20119;-89
2022/02/07 12:13:34;;;;;;;24.55;3.47;;;7.70;99.90;;;;;;5040815;28;20574;-88
2022/02/07 12:16:16;;;;;;;28.38;3.65;;;7.80;99.90;;;;;;5036115;28;20071;-86
2022/02/07 12:18:46;;;;;;;31.25;3.85;;;7.90;99.90;;;;;;5038564;28;20086;-87
2022/02/07 12:21:22;;;;;;;21.23;3.42;;;8.00;99.90;;;;;;5024904;28;20120;-87
2022/02/07 12:23:56;;;;;;;34.08;3.10;;;8.10;99.90;;;;;;5065149;28;20036;-89
2022/02/07 12:26:25;;;;;;;24.85;3.55;;;8.00;99.90;;;;;;5060584;28;20040;-87
2022/02/07 12:28:58;;;;;;;21.42;3.80;;;7.80;99.90;;;;;;5043728;28;20045;-87
2022/02/07 12:31:31;;;;;;;20.40;3.25;;;7.70;99.90;;;;;;5024852;28;20040;-92
2022/02/07 12:34:02;;;;;;;19.83;2.65;;;7.60;99.90;;;;;;5017758;28;20048;-86
2022/02/07 12:36:35;;;;;;;24.83;2.90;;;7.60;99.90;;;;;;5043307;28;20123;-88
2022/02/07 12:39:08;;;;;;;27.05;3.00;;;7.60;99.90;;;;;;5047185;28;20048;-89
2022/02/07 12:41:50;;;;;;;18.20;2.53;;;7.70;99.90;;;;;;5043732;28;20272;-90
2022/02/07 12:44:23;;;;;;;24.15;3.63;;;8.00;99.90;;;;;;5042184;28;20044;-88
2022/02/07 12:46:50;;;;;;;;;;;8.30;99.90;;;;;;5025944;28;20131;-88
2022/02/07 12:49:24;;;;;;;25.58;3.45;;;8.40;99.90;;;;;;5022823;28;19931;-88
2022/02/07 12:51:59;;;;;;;22.45;2.85;;;8.50;99.90;;;;;;5034736;28;20369;-87
2022/02/07 12:54:26;;;;;;;24.77;3.30;;;8.50;99.90;;;;;;5017601;28;21575;-86
2022/02/07 12:57:01;;;;;;;32.13;3.25;;;8.60;99.90;;;;;;5017144;28;20120;-87
2022/02/07 12:59:36;;;;;;;18.85;3.15;;;8.80;99.90;;;;;;5040374;28;20366;-89
2022/02/07 13:02:05;;;;;;;26.33;2.95;;;9.00;99.90;;;;;;5047783;28;20053;-90
2022/02/07 13:04:32;;;;;;;19.48;3.22;;;9.50;99.90;;;;;;5000436;28;20246;-89
2022/02/07 13:07:04;;;;;;;27.85;3.33;;;9.80;99.90;;;;;;5050544;28;20530;-87
2022/02/07 13:09:39;;;;;;;28.10;3.65;;;10.00;99.90;;;;;;5038936;28;20032;-88
2022/02/07 13:14:43;;;;;;;22.42;3.20;;;9.70;99.90;;;;;;5043922;28;20136;-87
2022/02/07 13:17:10;;;;;;;17.50;2.90;;;9.50;99.90;;;;;;5020126;28;20513;-87
2022/02/07 13:19:46;;;;;;;22.75;3.17;;;9.30;99.90;;;;;;5025224;28;20391;-91
2022/02/07 13:22:18;;;;;;;24.13;3.10;;;9.30;99.90;;;;;;5026247;28;20123;-89
2022/02/07 13:24:49;;;;;;;24.17;3.28;;;9.10;99.90;;;;;;5029338;28;20364;-88
2022/02/07 13:27:17;;;;;;;20.42;3.28;;;8.90;99.90;;;;;;5019658;28;20477;-86
2022/02/07 13:29:57;;;;;;;26.60;3.42;;;8.70;99.90;;;;;;5014532;28;20069;-86
2022/02/07 13:32:31;;;;;;;30.23;3.22;;;8.60;99.90;;;;;;5041667;28;20046;-85
2022/02/07 13:35:05;;;;;;;21.30;3.47;;;8.40;99.90;;;;;;5021206;28;20140;-88
2022/02/07 13:37:37;;;;;;;23.30;3.45;;;8.20;99.90;;;;;;5036548;28;20152;-85
2022/02/07 13:40:07;;;;;;;22.48;3.00;;;8.00;99.90;;;;;;5007536;28;20096;-85
2022/02/07 13:42:38;;;;;;;22.40;3.33;;;7.90;99.90;;;;;;5018296;28;20047;-88
2022/02/07 13:45:09;;;;;;;18.85;2.50;;;7.80;99.90;;;;;;5015847;28;20441;-87
2022/02/07 13:47:40;;;;;;;19.60;2.67;;;7.80;99.90;;;;;;5048177;28;20076;-86
2022/02/07 13:50:11;;;;;;;23.88;2.60;;;7.80;99.90;;;;;;5023962;28;20549;-86
2022/02/07 13:52:40;;;;;;;18.33;3.38;;;7.90;99.90;;;;;;5026144;28;20037;-85
2022/02/07 13:55:28;;;;;;;20.50;3.13;;;7.80;99.90;;;;;;5024795;28;20253;-88
2022/02/07 13:58:01;;;;;;;30.17;2.92;;;7.80;99.90;;;;;;5041745;28;20048;-86
2022/02/07 14:00:37;;;;;;;17.58;2.78;;;7.70;99.90;;;;;;5024813;28;20152;-88
2022/02/07 14:03:14;;;;;;;19.67;2.10;;;7.60;99.90;;;;;;5020933;28;20128;-87
2022/02/07 14:05:54;;;;;;;20.15;2.80;;;7.60;99.90;;;;;;5021361;28;20462;-87
2022/02/07 14:08:34;;;;;;;25.70;3.40;;;7.50;99.90;;;;;;5018205;28;20053;-86
2022/02/07 14:11:01;;;;;;;20.73;2.25;;;7.40;99.90;;;;;;5023247;28;20029;-86
2022/02/07 14:13:27;;;;;;;16.10;2.67;;;7.30;99.90;;;;;;4987838;28;20525;-86
2022/02/07 14:16:09;;;;;;;23.48;2.70;;;7.30;99.90;;;;;;4983700;28;20561;-85
2022/02/07 14:18:44;;;;;;;19.65;2.70;;;7.20;99.90;;;;;;5019321;28;20267;-89
2022/02/07 14:21:11;;;;;;;20.60;2.63;;;7.20;99.90;;;;;;5019494;28;20049;-89
2022/02/07 14:23:39;;;;;;;27.67;3.13;;;7.20;99.90;;;;;;5008446;28;21062;-85
2022/02/07 14:26:08;;;;;;;17.70;2.67;;;7.20;99.90;;;;;;5000556;28;20059;-86
2022/02/07 14:28:34;;;;;;;17.50;3.10;;;7.30;99.90;;;;;;5005470;28;20032;-85
2022/02/07 14:31:08;;;;;;;17.65;2.40;;;7.40;99.90;;;;;;5004261;28;20045;-86
2022/02/07 14:33:39;;;;;;;28.80;2.92;;;7.40;99.90;;;;;;4997272;28;20341;-89
2022/02/07 14:36:06;;;;;;;11.48;2.20;;;7.50;99.90;;;;;;4988472;28;20395;-87
2022/02/07 14:38:41;;;;;;;21.50;2.90;;;7.40;99.90;;;;;;5000759;28;20030;-88
2022/02/07 14:41:11;;;;;;;18.77;2.58;;;7.30;99.90;;;;;;5007490;28;20276;-87
2022/02/07 14:43:44;;;;;;;16.35;2.25;;;7.20;99.90;;;;;;5004216;28;20088;-86
2022/02/07 14:46:10;;;;;;;;;;;7.10;99.90;;;;;;4984266;28;20053;-87
2022/02/07 14:48:41;;;;;;;23.42;2.47;;;7.00;99.90;;;;;;5020483;28;19926;-88
2022/02/07 14:51:07;;;;;;;30.48;3.28;;;7.10;99.90;;;;;;5011335;28;20037;-86
2022/02/07 14:53:41;;;;;;;17.30;2.85;;;6.90;99.90;;;;;;5000812;28;20037;-89
2022/02/07 14:56:07;;;;;;;17.95;2.53;;;6.90;99.90;;;;;;4989835;28;20030;-86
2022/02/07 14:58:34;;;;;;;24.27;2.95;;;6.80;99.90;;;;;;5034014;28;20038;-89
2022/02/07 15:01:01;;;;;;;18.60;2.55;;;6.80;99.90;;;;;;5010383;28;20136;-87
2022/02/07 15:03:36;;;;;;;21.90;2.88;;;6.80;99.90;;;;;;5000793;28;20040;-88
2022/02/07 15:06:08;;;;;;;15.15;2.25;;;6.80;99.90;;;;;;5018028;28;20037;-88
2022/02/07 15:08:33;;;;;;;22.38;2.42;;;6.80;99.90;;;;;;5008729;28;20037;-88
2022/02/07 15:11:05;;;;;;;23.70;3.10;;;6.80;99.90;;;;;;5023690;28;20041;-87
2022/02/07 15:13:33;;;;;;;12.30;2.23;;;6.80;99.90;;;;;;5018873;28;20029;-88
2022/02/07 15:16:03;;;;;;;15.43;2.22;;;6.70;99.90;;;;;;4969855;28;20046;-87
2022/02/07 15:18:32;;;;;;;13.48;2.13;;;6.70;99.90;;;;;;5009962;28;20037;-86
2022/02/07 15:21:05;;;;;;;22.25;2.72;;;6.60;99.90;;;;;;5001838;28;20033;-86
2022/02/07 15:23:31;;;;;;;23.88;3.03;;;6.60;99.90;;;;;;5017494;28;20037;-87
2022/02/07 15:26:06;;;;;;;18.42;2.33;;;6.50;99.90;;;;;;4965053;28;20104;-88
2022/02/07 15:28:32;;;;;;;15.18;2.78;;;6.50;99.90;;;;;;4997928;28;20037;-87
2022/02/07 15:30:58;;;;;;;18.67;2.40;;;6.50;99.90;;;;;;4986586;28;21667;-86
2022/02/07 15:33:40;;;;;;;16.15;2.53;;;6.40;99.90;;;;;;4980312;28;20069;-87
2022/02/07 15:36:06;;;;;;;21.70;2.37;;;6.40;99.90;;;;;;5002996;28;20129;-86
2022/02/07 15:38:33;;;;;;;17.17;2.10;;;6.30;99.90;;;;;;4990482;28;20188;-87
2022/02/07 15:41:12;;;;;;;16.30;2.17;;;6.30;99.90;;;;;;4987896;28;20040;-86
2022/02/07 15:43:50;;;;;;;21.90;2.67;;;6.30;99.90;;;;;;4981087;28;20038;-87
2022/02/07 15:46:24;;;;;;;27.10;2.55;;;6.20;99.90;;;;;;5003303;28;20199;-87
2022/02/07 15:48:53;;;;;;;20.40;2.15;;;6.20;99.90;;;;;;5005075;28;20037;-88
2022/02/07 15:51:19;;;;;;;27.88;2.88;;;6.20;99.90;;;;;;5002519;28;20045;-86
2022/02/07 15:53:48;;;;;;;16.27;2.15;;;6.10;99.90;;;;;;4986615;28;21095;-87
2022/02/07 15:56:14;;;;;;;17.70;2.25;;;6.10;99.90;;;;;;5001159;28;20040;-84
2022/02/07 15:58:44;;;;;;;18.92;2.38;;;6.00;99.90;;;;;;4967475;28;20029;-89
2022/02/07 16:01:11;;;;;;;11.55;1.83;;;6.00;99.90;;;;;;5002725;28;20361;-88
2022/02/07 16:03:37;;;;;;;26.13;2.10;;;6.00;99.90;;;;;;4982109;28;20156;-87
2022/02/07 16:06:16;;;;;;;16.42;2.15;;;6.00;99.90;;;;;;4967239;28;20493;-88
2022/02/07 16:08:43;;;;;;;15.65;2.17;;;6.00;99.90;;;;;;4994875;28;20453;-88
2022/02/07 16:11:12;;;;;;;14.25;1.75;;;5.90;99.90;;;;;;4982907;28;20442;-86
2022/02/07 16:13:53;;;;;;;27.20;2.47;;;5.90;99.90;;;;;;4971780;28;20043;-87
2022/02/07 16:16:20;;;;;;;14.40;1.80;;;5.80;99.90;;;;;;4999411;28;20029;-88
2022/02/07 16:18:47;;;;;;;17.20;2.47;;;5.80;99.90;;;;;;5000365;28;20385;-86
2022/02/07 16:21:13;;;;;;;18.85;2.38;;;5.80;99.90;;;;;;4988581;28;20106;-84
2022/02/07 16:23:39;;;;;;;24.48;2.78;;;5.70;99.90;;;;;;4997648;28;20107;-86
2022/02/07 16:26:08;;;;;;;18.58;2.35;;;5.70;99.90;;;;;;5002073;28;20069;-86
2022/02/07 16:28:34;;;;;;;22.75;2.47;;;5.60;99.90;;;;;;4988062;28;20071;-85
2022/02/07 16:31:00;;;;;;;20.08;2.30;;;5.60;99.90;;;;;;4988146;28;20062;-86
2022/02/07 16:33:26;;;;;;;15.82;2.22;;;5.60;99.90;;;;;;5023958;28;20049;-86